sensor_id;sensor_type;location;lat;lon;timestamp;temperature;humidity
40676;DHT22;26359;48.750;9.314;2023-02-10T00:01:56;-1.20;99.90
40676;DHT22;26359;48.750;9.314;2023-02-10T00:04:21;-1.30;99.90
40676;DHT22;26359;48.750;9.314;2023-02-10T00:06:47;-1.40;99.90
40676;DHT22;26359;48.750;9.314;2023-02-10T00:09:13;-1.40;99.90
40676;DHT22;26359;48.750;9.314;2023-02-10T00:11:39;-1.50;99.90
40676;DHT22;26359;48.750;9.314;2023-02-10T00:14:25;-1.50;99.90
40676;DHT22;26359;48.750;9.314;2023-02-10T00:16:52;-1.60;99.90
40676;DHT22;26359;48.750;9.314;2023-02-10T00:19:18;-1.70;99.90
40676;DHT22;26359;48.750;9.314;2023-02-10T00:21:43;-1.70;99.90
40676;DHT22;26359;48.750;9.314;2023-02-10T00:24:09;-1.60;99.90
40676;DHT22;26359;48.750;9.314;2023-02-10T00:26:35;-1.60;99.90
40676;DHT22;26359;48.750;9.314;2023-02-10T00:29:00;-1.60;99.90
40676;DHT22;26359;48.750;9.314;2023-02-10T00:31:26;-1.60;99.90
40676;DHT22;26359;48.750;9.314;2023-02-10T00:33:51;-1.70;99.90
40676;DHT22;26359;48.750;9.314;2023-02-10T00:36:17;-1.70;99.90
40676;DHT22;26359;48.750;9.314;2023-02-10T00:38:43;-1.70;99.90
40676;DHT22;26359;48.750;9.314;2023-02-10T00:41:14;-1.80;99.90
40676;DHT22;26359;48.750;9.314;2023-02-10T00:43:40;-1.80;99.90
40676;DHT22;26359;48.750;9.314;2023-02-10T00:46:06;-1.80;99.90
40676;DHT22;26359;48.750;9.314;2023-02-10T00:48:33;-1.80;99.90
40676;DHT22;26359;48.750;9.314;2023-02-10T00:50:58;-1.70;99.90
40676;DHT22;26359;48.750;9.314;2023-02-10T00:53:24;-1.80;99.90
40676;DHT22;26359;48.750;9.314;2023-02-10T00:55:49;-1.80;99.90
40676;DHT22;26359;48.750;9.314;2023-02-10T00:58:15;-1.80;99.90
40676;DHT22;26359;48.750;9.314;2023-02-10T01:00:41;-1.80;99.90
40676;DHT22;26359;48.750;9.314;2023-02-10T01:03:06;-1.70;99.90
40676;DHT22;26359;48.750;9.314;2023-02-10T01:05:32;-1.70;99.90
40676;DHT22;26359;48.750;9.314;2023-02-10T01:07:57;-1.70;99.90
40676;DHT22;26359;48.750;9.314;2023-02-10T01:10:23;-1.80;99.90
40676;DHT22;26359;48.750;9.314;2023-02-10T01:12:48;-1.90;99.90
40676;DHT22;26359;48.750;9.314;2023-02-10T01:15:14;-1.90;99.90
40676;DHT22;26359;48.750;9.314;2023-02-10T01:17:40;-1.90;99.90
40676;DHT22;26359;48.750;9.314;2023-02-10T01:20:06;-2.00;99.90
40676;DHT22;26359;48.750;9.314;2023-02-10T01:22:33;-2.10;99.90
40676;DHT22;26359;48.750;9.314;2023-02-10T01:24:58;-2.10;99.90
40676;DHT22;26359;48.750;9.314;2023-02-10T01:27:24;-2.00;99.90
40676;DHT22;26359;48.750;9.314;2023-02-10T01:29:49;-2.00;99.90
40676;DHT22;26359;48.750;9.314;2023-02-10T01:32:15;-1.90;99.90
40676;DHT22;26359;48.750;9.314;2023-02-10T01:34:40;-1.90;99.90
40676;DHT22;26359;48.750;9.314;2023-02-10T01:37:06;-2.00;99.90
40676;DHT22;26359;48.750;9.314;2023-02-10T01:39:31;-2.10;99.90
40676;DHT22;26359;48.750;9.314;2023-02-10T01:41:57;-2.10;99.90
40676;DHT22;26359;48.750;9.314;2023-02-10T01:46:48;-2.20;99.90
40676;DHT22;26359;48.750;9.314;2023-02-10T01:49:19;-2.30;99.90
40676;DHT22;26359;48.750;9.314;2023-02-10T01:51:52;-2.30;99.90
40676;DHT22;26359;48.750;9.314;2023-02-10T01:54:21;-2.30;99.90
40676;DHT22;26359;48.750;9.314;2023-02-10T01:56:49;-2.30;99.90
40676;DHT22;26359;48.750;9.314;2023-02-10T01:59:18;-2.40;99.90
40676;DHT22;26359;48.750;9.314;2023-02-10T02:01:45;-2.40;99.90
40676;DHT22;26359;48.750;9.314;2023-02-10T02:04:10;-2.40;99.90
40676;DHT22;26359;48.750;9.314;2023-02-10T02:06:36;-2.40;99.90
40676;DHT22;26359;48.750;9.314;2023-02-10T02:09:03;-2.30;99.90
40676;DHT22;26359;48.750;9.314;2023-02-10T02:12:19;-2.30;99.90
40676;DHT22;26359;48.750;9.314;2023-02-10T02:14:41;-2.40;99.90
40676;DHT22;26359;48.750;9.314;2023-02-10T02:17:28;-2.40;99.90
40676;DHT22;26359;48.750;9.314;2023-02-10T02:20:32;-2.50;99.90
40676;DHT22;26359;48.750;9.314;2023-02-10T02:23:32;-2.50;99.90
40676;DHT22;26359;48.750;9.314;2023-02-10T02:34:16;-2.50;99.90
40676;DHT22;26359;48.750;9.314;2023-02-10T02:37:01;-2.60;99.90
40676;DHT22;26359;48.750;9.314;2023-02-10T02:39:28;-2.50;99.90
40676;DHT22;26359;48.750;9.314;2023-02-10T02:42:26;-2.40;99.90
40676;DHT22;26359;48.750;9.314;2023-02-10T02:44:54;-2.50;99.90
40676;DHT22;26359;48.750;9.314;2023-02-10T02:50:06;-2.50;99.90
40676;DHT22;26359;48.750;9.314;2023-02-10T02:58:14;-2.60;99.90
40676;DHT22;26359;48.750;9.314;2023-02-10T03:00:43;-2.60;99.90
40676;DHT22;26359;48.750;9.314;2023-02-10T03:06:12;-2.50;99.90
40676;DHT22;26359;48.750;9.314;2023-02-10T03:08:39;-2.40;99.90
40676;DHT22;26359;48.750;9.314;2023-02-10T03:11:06;-2.40;99.90
40676;DHT22;26359;48.750;9.314;2023-02-10T03:13:31;-2.40;99.90
40676;DHT22;26359;48.750;9.314;2023-02-10T03:15:58;-2.50;99.90
40676;DHT22;26359;48.750;9.314;2023-02-10T03:18:25;-2.60;99.90
40676;DHT22;26359;48.750;9.314;2023-02-10T03:20:50;-2.60;99.90
40676;DHT22;26359;48.750;9.314;2023-02-10T03:23:16;-2.50;99.90
40676;DHT22;26359;48.750;9.314;2023-02-10T03:25:44;-2.50;99.90
40676;DHT22;26359;48.750;9.314;2023-02-10T03:28:10;-2.50;99.90
40676;DHT22;26359;48.750;9.314;2023-02-10T03:30:37;-2.50;99.90
40676;DHT22;26359;48.750;9.314;2023-02-10T03:33:03;-2.50;99.90
40676;DHT22;26359;48.750;9.314;2023-02-10T03:35:29;-2.60;99.90
40676;DHT22;26359;48.750;9.314;2023-02-10T03:37:54;-2.50;99.90
40676;DHT22;26359;48.750;9.314;2023-02-10T03:40:20;-2.60;99.90
40676;DHT22;26359;48.750;9.314;2023-02-10T03:42:46;-2.60;99.90
40676;DHT22;26359;48.750;9.314;2023-02-10T03:45:11;-2.60;99.90
40676;DHT22;26359;48.750;9.314;2023-02-10T03:47:37;-2.70;99.90
40676;DHT22;26359;48.750;9.314;2023-02-10T03:50:02;-2.70;99.90
40676;DHT22;26359;48.750;9.314;2023-02-10T03:52:28;-2.70;99.90
40676;DHT22;26359;48.750;9.314;2023-02-10T03:54:53;-2.70;99.90
40676;DHT22;26359;48.750;9.314;2023-02-10T03:57:19;-2.70;99.90
40676;DHT22;26359;48.750;9.314;2023-02-10T03:59:44;-2.70;99.90
40676;DHT22;26359;48.750;9.314;2023-02-10T04:02:10;-2.70;99.90
40676;DHT22;26359;48.750;9.314;2023-02-10T04:04:36;-2.70;99.90
40676;DHT22;26359;48.750;9.314;2023-02-10T04:07:02;-2.70;99.90
40676;DHT22;26359;48.750;9.314;2023-02-10T04:09:29;-2.70;99.90
40676;DHT22;26359;48.750;9.314;2023-02-10T04:11:54;-2.60;99.90
40676;DHT22;26359;48.750;9.314;2023-02-10T04:14:20;-2.60;99.90
40676;DHT22;26359;48.750;9.314;2023-02-10T04:16:45;-2.60;99.90
40676;DHT22;26359;48.750;9.314;2023-02-10T04:19:11;-2.70;99.90
40676;DHT22;26359;48.750;9.314;2023-02-10T04:21:36;-2.80;99.90
40676;DHT22;26359;48.750;9.314;2023-02-10T04:24:02;-2.80;99.90
40676;DHT22;26359;48.750;9.314;2023-02-10T04:26:27;-2.70;99.90
40676;DHT22;26359;48.750;9.314;2023-02-10T04:28:53;-2.80;99.90
40676;DHT22;26359;48.750;9.314;2023-02-10T04:31:18;-2.80;99.90
40676;DHT22;26359;48.750;9.314;2023-02-10T04:33:44;-2.80;99.90
40676;DHT22;26359;48.750;9.314;2023-02-10T04:36:09;-2.80;99.90
40676;DHT22;26359;48.750;9.314;2023-02-10T04:38:35;-2.90;99.90
40676;DHT22;26359;48.750;9.314;2023-02-10T04:41:01;-2.90;99.90
40676;DHT22;26359;48.750;9.314;2023-02-10T04:43:28;-2.90;99.90
40676;DHT22;26359;48.750;9.314;2023-02-10T04:45:54;-2.90;99.90
40676;DHT22;26359;48.750;9.314;2023-02-10T04:48:19;-2.90;99.90
40676;DHT22;26359;48.750;9.314;2023-02-10T04:50:46;-2.90;99.90
40676;DHT22;26359;48.750;9.314;2023-02-10T04:53:12;-2.80;99.90
40676;DHT22;26359;48.750;9.314;2023-02-10T04:55:37;-2.90;99.90
40676;DHT22;26359;48.750;9.314;2023-02-10T04:58:03;-2.90;99.90
40676;DHT22;26359;48.750;9.314;2023-02-10T05:00:28;-2.90;99.90
40676;DHT22;26359;48.750;9.314;2023-02-10T05:02:54;-2.90;99.90
40676;DHT22;26359;48.750;9.314;2023-02-10T05:05:20;-3.00;99.90
40676;DHT22;26359;48.750;9.314;2023-02-10T05:07:45;-3.00;99.90
40676;DHT22;26359;48.750;9.314;2023-02-10T05:10:11;-3.00;99.90
40676;DHT22;26359;48.750;9.314;2023-02-10T05:12:37;-3.00;99.90
40676;DHT22;26359;48.750;9.314;2023-02-10T05:15:03;-3.10;99.90
40676;DHT22;26359;48.750;9.314;2023-02-10T05:17:28;-3.00;99.90
40676;DHT22;26359;48.750;9.314;2023-02-10T05:19:54;-3.10;99.90
40676;DHT22;26359;48.750;9.314;2023-02-10T05:22:19;-3.10;99.90
40676;DHT22;26359;48.750;9.314;2023-02-10T05:24:47;-3.20;99.90
40676;DHT22;26359;48.750;9.314;2023-02-10T05:27:14;-3.10;99.90
40676;DHT22;26359;48.750;9.314;2023-02-10T05:29:40;-3.20;99.90
40676;DHT22;26359;48.750;9.314;2023-02-10T05:32:05;-3.10;99.90
40676;DHT22;26359;48.750;9.314;2023-02-10T05:34:31;-3.00;99.90
40676;DHT22;26359;48.750;9.314;2023-02-10T05:36:56;-3.00;99.90
40676;DHT22;26359;48.750;9.314;2023-02-10T05:39:22;-3.10;99.90
40676;DHT22;26359;48.750;9.314;2023-02-10T05:41:52;-3.10;99.90
40676;DHT22;26359;48.750;9.314;2023-02-10T05:44:17;-3.20;99.90
40676;DHT22;26359;48.750;9.314;2023-02-10T05:46:43;-3.20;99.90
40676;DHT22;26359;48.750;9.314;2023-02-10T05:49:09;-3.30;99.90
40676;DHT22;26359;48.750;9.314;2023-02-10T05:51:34;-3.30;99.90
40676;DHT22;26359;48.750;9.314;2023-02-10T05:54:00;-3.30;99.90
40676;DHT22;26359;48.750;9.314;2023-02-10T05:56:26;-3.20;99.90
40676;DHT22;26359;48.750;9.314;2023-02-10T05:58:51;-3.30;99.90
40676;DHT22;26359;48.750;9.314;2023-02-10T06:01:17;-3.30;99.90
40676;DHT22;26359;48.750;9.314;2023-02-10T06:03:42;-3.30;99.90
40676;DHT22;26359;48.750;9.314;2023-02-10T06:06:08;-3.30;99.90
40676;DHT22;26359;48.750;9.314;2023-02-10T06:08:33;-3.30;99.90
40676;DHT22;26359;48.750;9.314;2023-02-10T06:10:59;-3.20;99.90
40676;DHT22;26359;48.750;9.314;2023-02-10T06:13:24;-3.20;99.90
40676;DHT22;26359;48.750;9.314;2023-02-10T06:15:50;-3.20;99.90
40676;DHT22;26359;48.750;9.314;2023-02-10T06:18:15;-3.20;99.90
40676;DHT22;26359;48.750;9.314;2023-02-10T06:20:41;-3.10;99.90
40676;DHT22;26359;48.750;9.314;2023-02-10T06:23:07;-3.20;99.90
40676;DHT22;26359;48.750;9.314;2023-02-10T06:25:32;-3.20;99.90
40676;DHT22;26359;48.750;9.314;2023-02-10T06:28:01;-3.20;99.90
40676;DHT22;26359;48.750;9.314;2023-02-10T06:30:26;-3.20;99.90
40676;DHT22;26359;48.750;9.314;2023-02-10T06:32:52;-3.20;99.90
40676;DHT22;26359;48.750;9.314;2023-02-10T06:35:19;-3.10;99.90
40676;DHT22;26359;48.750;9.314;2023-02-10T06:37:44;-3.00;99.90
40676;DHT22;26359;48.750;9.314;2023-02-10T06:40:10;-3.10;99.90
40676;DHT22;26359;48.750;9.314;2023-02-10T06:42:36;-3.10;99.90
40676;DHT22;26359;48.750;9.314;2023-02-10T06:45:02;-3.10;99.90
40676;DHT22;26359;48.750;9.314;2023-02-10T06:47:28;-3.10;99.90
40676;DHT22;26359;48.750;9.314;2023-02-10T06:49:53;-3.20;99.90
40676;DHT22;26359;48.750;9.314;2023-02-10T06:52:19;-3.20;99.90
40676;DHT22;26359;48.750;9.314;2023-02-10T06:54:44;-3.10;99.90
40676;DHT22;26359;48.750;9.314;2023-02-10T06:57:10;-3.10;99.90
40676;DHT22;26359;48.750;9.314;2023-02-10T06:59:36;-3.20;99.90
40676;DHT22;26359;48.750;9.314;2023-02-10T07:02:02;-3.20;99.90
40676;DHT22;26359;48.750;9.314;2023-02-10T07:04:28;-3.10;99.90
40676;DHT22;26359;48.750;9.314;2023-02-10T07:06:53;-3.10;99.90
40676;DHT22;26359;48.750;9.314;2023-02-10T07:09:19;-3.00;99.90
40676;DHT22;26359;48.750;9.314;2023-02-10T07:11:45;-3.00;99.90
40676;DHT22;26359;48.750;9.314;2023-02-10T07:14:10;-3.00;99.90
40676;DHT22;26359;48.750;9.314;2023-02-10T07:16:36;-2.90;99.90
40676;DHT22;26359;48.750;9.314;2023-02-10T07:19:02;-3.00;99.90
40676;DHT22;26359;48.750;9.314;2023-02-10T07:21:28;-2.90;99.90
40676;DHT22;26359;48.750;9.314;2023-02-10T07:23:53;-2.50;99.90
40676;DHT22;26359;48.750;9.314;2023-02-10T07:26:19;-1.90;99.90
40676;DHT22;26359;48.750;9.314;2023-02-10T07:28:44;-1.20;99.90
40676;DHT22;26359;48.750;9.314;2023-02-10T07:31:10;-0.90;99.90
40676;DHT22;26359;48.750;9.314;2023-02-10T07:33:36;-1.20;99.90
40676;DHT22;26359;48.750;9.314;2023-02-10T07:36:01;-1.50;99.90
40676;DHT22;26359;48.750;9.314;2023-02-10T07:38:28;-1.70;99.90
40676;DHT22;26359;48.750;9.314;2023-02-10T07:40:54;-1.90;99.90
40676;DHT22;26359;48.750;9.314;2023-02-10T07:43:19;-2.10;99.90
40676;DHT22;26359;48.750;9.314;2023-02-10T07:45:45;-2.10;99.90
40676;DHT22;26359;48.750;9.314;2023-02-10T07:48:10;-2.20;99.90
40676;DHT22;26359;48.750;9.314;2023-02-10T07:50:36;-2.20;99.90
40676;DHT22;26359;48.750;9.314;2023-02-10T07:53:02;-2.30;99.90
40676;DHT22;26359;48.750;9.314;2023-02-10T07:55:27;-2.20;99.90
40676;DHT22;26359;48.750;9.314;2023-02-10T07:57:53;-2.20;99.90
40676;DHT22;26359;48.750;9.314;2023-02-10T08:00:18;-2.20;99.90
40676;DHT22;26359;48.750;9.314;2023-02-10T08:02:44;-2.20;99.90
40676;DHT22;26359;48.750;9.314;2023-02-10T08:05:10;-2.20;99.90
40676;DHT22;26359;48.750;9.314;2023-02-10T08:07:36;-2.20;99.90
40676;DHT22;26359;48.750;9.314;2023-02-10T08:10:02;-2.20;99.90
40676;DHT22;26359;48.750;9.314;2023-02-10T08:12:28;-2.30;99.90
40676;DHT22;26359;48.750;9.314;2023-02-10T08:14:53;-2.30;99.90
40676;DHT22;26359;48.750;9.314;2023-02-10T08:17:19;-2.30;99.90
40676;DHT22;26359;48.750;9.314;2023-02-10T08:19:44;-2.30;99.90
40676;DHT22;26359;48.750;9.314;2023-02-10T08:22:10;-2.30;99.90
40676;DHT22;26359;48.750;9.314;2023-02-10T08:24:35;-2.30;99.90
40676;DHT22;26359;48.750;9.314;2023-02-10T08:27:01;-2.30;99.90
40676;DHT22;26359;48.750;9.314;2023-02-10T08:29:27;-2.20;99.90
40676;DHT22;26359;48.750;9.314;2023-02-10T08:31:53;-2.20;99.90
40676;DHT22;26359;48.750;9.314;2023-02-10T08:34:20;-2.10;99.90
40676;DHT22;26359;48.750;9.314;2023-02-10T08:36:46;-2.00;99.90
40676;DHT22;26359;48.750;9.314;2023-02-10T08:39:12;-2.00;99.90
40676;DHT22;26359;48.750;9.314;2023-02-10T08:41:39;-2.00;99.90
40676;DHT22;26359;48.750;9.314;2023-02-10T08:44:06;-2.00;99.90
40676;DHT22;26359;48.750;9.314;2023-02-10T08:46:32;-2.00;99.90
40676;DHT22;26359;48.750;9.314;2023-02-10T08:48:58;-1.90;99.90
40676;DHT22;26359;48.750;9.314;2023-02-10T08:51:26;-1.90;99.90
40676;DHT22;26359;48.750;9.314;2023-02-10T08:53:52;-1.80;99.90
40676;DHT22;26359;48.750;9.314;2023-02-10T08:56:18;-1.80;99.90
40676;DHT22;26359;48.750;9.314;2023-02-10T08:58:45;-1.70;99.90
40676;DHT22;26359;48.750;9.314;2023-02-10T09:01:17;-1.70;99.90
40676;DHT22;26359;48.750;9.314;2023-02-10T09:03:43;-1.70;99.90
40676;DHT22;26359;48.750;9.314;2023-02-10T09:06:16;-1.60;99.90
40676;DHT22;26359;48.750;9.314;2023-02-10T09:08:43;-1.50;99.90
40676;DHT22;26359;48.750;9.314;2023-02-10T09:11:09;-1.40;99.90
40676;DHT22;26359;48.750;9.314;2023-02-10T09:13:35;-1.40;99.90
40676;DHT22;26359;48.750;9.314;2023-02-10T09:16:01;-1.20;99.90
40676;DHT22;26359;48.750;9.314;2023-02-10T09:18:26;-1.10;99.90
40676;DHT22;26359;48.750;9.314;2023-02-10T09:20:52;-1.10;99.90
40676;DHT22;26359;48.750;9.314;2023-02-10T09:23:18;-0.90;99.90
40676;DHT22;26359;48.750;9.314;2023-02-10T09:25:43;-0.80;99.90
40676;DHT22;26359;48.750;9.314;2023-02-10T09:28:09;-0.60;99.90
40676;DHT22;26359;48.750;9.314;2023-02-10T09:30:34;-0.40;99.90
40676;DHT22;26359;48.750;9.314;2023-02-10T09:33:00;-0.20;99.90
40676;DHT22;26359;48.750;9.314;2023-02-10T09:35:26;0.10;99.90
40676;DHT22;26359;48.750;9.314;2023-02-10T09:37:51;0.70;99.90
40676;DHT22;26359;48.750;9.314;2023-02-10T09:40:21;1.30;99.90
40676;DHT22;26359;48.750;9.314;2023-02-10T09:45:35;2.20;99.90
40676;DHT22;26359;48.750;9.314;2023-02-10T09:51:19;3.00;99.90
40676;DHT22;26359;48.750;9.314;2023-02-10T09:53:47;3.40;99.90
40676;DHT22;26359;48.750;9.314;2023-02-10T09:56:17;3.70;99.90
40676;DHT22;26359;48.750;9.314;2023-02-10T09:58:47;3.90;99.90
40676;DHT22;26359;48.750;9.314;2023-02-10T10:01:21;4.20;99.90
40676;DHT22;26359;48.750;9.314;2023-02-10T10:04:03;4.20;99.90
40676;DHT22;26359;48.750;9.314;2023-02-10T10:06:33;4.50;99.90
40676;DHT22;26359;48.750;9.314;2023-02-10T10:14:04;4.90;99.90
40676;DHT22;26359;48.750;9.314;2023-02-10T10:22:29;5.20;99.90
40676;DHT22;26359;48.750;9.314;2023-02-10T10:27:55;5.20;99.90
40676;DHT22;26359;48.750;9.314;2023-02-10T10:30:34;5.40;99.90
40676;DHT22;26359;48.750;9.314;2023-02-10T10:33:14;5.50;99.90
40676;DHT22;26359;48.750;9.314;2023-02-10T10:35:44;5.60;99.90
40676;DHT22;26359;48.750;9.314;2023-02-10T10:38:22;5.60;99.90
40676;DHT22;26359;48.750;9.314;2023-02-10T10:40:53;5.80;99.90
40676;DHT22;26359;48.750;9.314;2023-02-10T10:43:26;6.00;99.90
40676;DHT22;26359;48.750;9.314;2023-02-10T10:46:13;6.10;99.90
40676;DHT22;26359;48.750;9.314;2023-02-10T10:48:41;6.10;99.90
40676;DHT22;26359;48.750;9.314;2023-02-10T10:51:07;6.60;99.90
40676;DHT22;26359;48.750;9.314;2023-02-10T10:53:42;6.60;99.90
40676;DHT22;26359;48.750;9.314;2023-02-10T10:58:44;6.50;99.90
40676;DHT22;26359;48.750;9.314;2023-02-10T11:01:12;6.20;99.90
40676;DHT22;26359;48.750;9.314;2023-02-10T11:03:38;6.50;99.90
40676;DHT22;26359;48.750;9.314;2023-02-10T11:06:14;6.70;99.90
40676;DHT22;26359;48.750;9.314;2023-02-10T11:09:01;7.00;99.90
40676;DHT22;26359;48.750;9.314;2023-02-10T11:13:58;7.20;99.90
40676;DHT22;26359;48.750;9.314;2023-02-10T11:16:24;7.10;99.90
40676;DHT22;26359;48.750;9.314;2023-02-10T11:19:00;7.20;99.90
40676;DHT22;26359;48.750;9.314;2023-02-10T11:21:37;7.40;99.90
40676;DHT22;26359;48.750;9.314;2023-02-10T11:24:13;7.60;99.90
40676;DHT22;26359;48.750;9.314;2023-02-10T11:26:40;7.60;99.90
40676;DHT22;26359;48.750;9.314;2023-02-10T11:29:10;7.60;99.90
40676;DHT22;26359;48.750;9.314;2023-02-10T11:31:36;7.60;99.90
40676;DHT22;26359;48.750;9.314;2023-02-10T11:34:28;7.60;99.90
40676;DHT22;26359;48.750;9.314;2023-02-10T11:36:56;7.90;99.90
40676;DHT22;26359;48.750;9.314;2023-02-10T11:39:33;8.00;99.90
40676;DHT22;26359;48.750;9.314;2023-02-10T11:42:26;8.00;99.90
40676;DHT22;26359;48.750;9.314;2023-02-10T11:47:33;8.80;99.90
40676;DHT22;26359;48.750;9.314;2023-02-10T11:49:59;9.10;99.90
40676;DHT22;26359;48.750;9.314;2023-02-10T11:52:27;9.30;99.90
40676;DHT22;26359;48.750;9.314;2023-02-10T11:54:55;9.40;99.90
40676;DHT22;26359;48.750;9.314;2023-02-10T12:05:19;9.60;99.90
40676;DHT22;26359;48.750;9.314;2023-02-10T12:16:48;9.50;99.90
40676;DHT22;26359;48.750;9.314;2023-02-10T12:19:44;9.50;99.90
40676;DHT22;26359;48.750;9.314;2023-02-10T12:22:27;9.70;99.90
40676;DHT22;26359;48.750;9.314;2023-02-10T12:25:16;10.00;99.90
40676;DHT22;26359;48.750;9.314;2023-02-10T12:28:08;9.60;99.10
40676;DHT22;26359;48.750;9.314;2023-02-10T12:30:52;9.10;99.00
40676;DHT22;26359;48.750;9.314;2023-02-10T12:33:39;9.10;99.90
40676;DHT22;26359;48.750;9.314;2023-02-10T12:36:30;9.20;99.90
40676;DHT22;26359;48.750;9.314;2023-02-10T12:49:49;10.10;98.70
40676;DHT22;26359;48.750;9.314;2023-02-10T12:52:26;10.20;99.10
40676;DHT22;26359;48.750;9.314;2023-02-10T12:54:57;10.40;98.20
40676;DHT22;26359;48.750;9.314;2023-02-10T13:02:55;10.40;97.30
40676;DHT22;26359;48.750;9.314;2023-02-10T13:05:32;10.40;98.60
40676;DHT22;26359;48.750;9.314;2023-02-10T13:08:02;10.40;98.10
40676;DHT22;26359;48.750;9.314;2023-02-10T13:10:38;10.00;97.20
40676;DHT22;26359;48.750;9.314;2023-02-10T13:13:10;9.80;98.50
40676;DHT22;26359;48.750;9.314;2023-02-10T13:15:48;9.60;98.80
40676;DHT22;26359;48.750;9.314;2023-02-10T13:18:19;9.70;98.40
40676;DHT22;26359;48.750;9.314;2023-02-10T13:23:44;9.30;97.80
40676;DHT22;26359;48.750;9.314;2023-02-10T13:29:15;9.30;99.40
40676;DHT22;26359;48.750;9.314;2023-02-10T13:34:59;9.00;99.20
40676;DHT22;26359;48.750;9.314;2023-02-10T13:37:35;9.40;99.40
40676;DHT22;26359;48.750;9.314;2023-02-10T13:43:03;9.60;99.00
40676;DHT22;26359;48.750;9.314;2023-02-10T13:45:32;9.80;98.60
40676;DHT22;26359;48.750;9.314;2023-02-10T13:48:01;9.80;98.30
40676;DHT22;26359;48.750;9.314;2023-02-10T13:50:52;9.80;98.70
40676;DHT22;26359;48.750;9.314;2023-02-10T13:53:44;9.80;97.90
40676;DHT22;26359;48.750;9.314;2023-02-10T14:01:39;9.70;98.20
40676;DHT22;26359;48.750;9.314;2023-02-10T14:04:25;10.00;98.20
40676;DHT22;26359;48.750;9.314;2023-02-10T14:06:53;9.80;98.30
40676;DHT22;26359;48.750;9.314;2023-02-10T14:09:34;9.80;97.80
40676;DHT22;26359;48.750;9.314;2023-02-10T14:12:04;9.90;97.30
40676;DHT22;26359;48.750;9.314;2023-02-10T14:14:38;9.70;96.80
40676;DHT22;26359;48.750;9.314;2023-02-10T14:17:20;9.60;96.00
40676;DHT22;26359;48.750;9.314;2023-02-10T14:19:48;9.40;96.10
40676;DHT22;26359;48.750;9.314;2023-02-10T14:22:26;9.20;96.30
40676;DHT22;26359;48.750;9.314;2023-02-10T14:24:53;9.00;96.90
40676;DHT22;26359;48.750;9.314;2023-02-10T14:27:21;8.90;97.40
40676;DHT22;26359;48.750;9.314;2023-02-10T14:30:05;8.80;97.70
40676;DHT22;26359;48.750;9.314;2023-02-10T14:32:43;8.70;97.60
40676;DHT22;26359;48.750;9.314;2023-02-10T14:35:23;8.60;97.70
40676;DHT22;26359;48.750;9.314;2023-02-10T14:37:54;8.60;97.20
40676;DHT22;26359;48.750;9.314;2023-02-10T14:40:22;8.70;97.90
40676;DHT22;26359;48.750;9.314;2023-02-10T14:42:48;8.60;97.60
40676;DHT22;26359;48.750;9.314;2023-02-10T14:45:23;8.50;97.60
40676;DHT22;26359;48.750;9.314;2023-02-10T14:47:50;8.50;98.00
40676;DHT22;26359;48.750;9.314;2023-02-10T14:52:48;8.30;97.30
40676;DHT22;26359;48.750;9.314;2023-02-10T14:55:29;8.30;97.90
40676;DHT22;26359;48.750;9.314;2023-02-10T14:58:10;8.20;98.10
40676;DHT22;26359;48.750;9.314;2023-02-10T15:00:37;8.20;98.10
40676;DHT22;26359;48.750;9.314;2023-02-10T15:03:04;8.10;98.60
40676;DHT22;26359;48.750;9.314;2023-02-10T15:05:38;7.90;98.50
40676;DHT22;26359;48.750;9.314;2023-02-10T15:08:06;7.90;98.90
40676;DHT22;26359;48.750;9.314;2023-02-10T15:10:40;7.90;98.70
40676;DHT22;26359;48.750;9.314;2023-02-10T15:13:09;7.60;98.90
40676;DHT22;26359;48.750;9.314;2023-02-10T15:15:37;7.40;99.50
40676;DHT22;26359;48.750;9.314;2023-02-10T15:18:15;7.30;99.90
40676;DHT22;26359;48.750;9.314;2023-02-10T15:20:52;7.20;99.90
40676;DHT22;26359;48.750;9.314;2023-02-10T15:23:18;7.10;99.40
40676;DHT22;26359;48.750;9.314;2023-02-10T15:25:44;7.00;99.90
40676;DHT22;26359;48.750;9.314;2023-02-10T15:33:26;6.70;99.90
40676;DHT22;26359;48.750;9.314;2023-02-10T15:36:03;6.70;99.90
40676;DHT22;26359;48.750;9.314;2023-02-10T15:38:31;6.70;99.90
40676;DHT22;26359;48.750;9.314;2023-02-10T15:40:57;6.60;99.90
40676;DHT22;26359;48.750;9.314;2023-02-10T15:43:31;6.40;99.90
40676;DHT22;26359;48.750;9.314;2023-02-10T15:46:26;6.30;99.90
40676;DHT22;26359;48.750;9.314;2023-02-10T15:48:53;6.20;99.90
40676;DHT22;26359;48.750;9.314;2023-02-10T15:51:29;6.10;99.90
40676;DHT22;26359;48.750;9.314;2023-02-10T15:53:56;6.00;99.90
40676;DHT22;26359;48.750;9.314;2023-02-10T15:56:23;6.00;99.90
40676;DHT22;26359;48.750;9.314;2023-02-10T15:58:49;6.00;99.90
40676;DHT22;26359;48.750;9.314;2023-02-10T16:01:15;5.90;99.90
40676;DHT22;26359;48.750;9.314;2023-02-10T16:03:40;5.90;99.90
40676;DHT22;26359;48.750;9.314;2023-02-10T16:06:07;5.90;99.90
40676;DHT22;26359;48.750;9.314;2023-02-10T16:08:34;5.70;99.90
40676;DHT22;26359;48.750;9.314;2023-02-10T16:10:59;5.60;99.90
40676;DHT22;26359;48.750;9.314;2023-02-10T16:13:25;5.60;99.90
40676;DHT22;26359;48.750;9.314;2023-02-10T16:15:50;5.50;99.90
40676;DHT22;26359;48.750;9.314;2023-02-10T16:18:21;5.40;99.90
40676;DHT22;26359;48.750;9.314;2023-02-10T16:20:48;5.30;99.90
40676;DHT22;26359;48.750;9.314;2023-02-10T16:23:18;5.10;99.90
40676;DHT22;26359;48.750;9.314;2023-02-10T16:25:45;5.10;99.90
40676;DHT22;26359;48.750;9.314;2023-02-10T16:28:19;5.00;99.90
40676;DHT22;26359;48.750;9.314;2023-02-10T16:30:45;5.00;99.90
40676;DHT22;26359;48.750;9.314;2023-02-10T16:33:12;4.90;99.90
40676;DHT22;26359;48.750;9.314;2023-02-10T16:35:38;4.80;99.90
40676;DHT22;26359;48.750;9.314;2023-02-10T16:38:04;4.70;99.90
40676;DHT22;26359;48.750;9.314;2023-02-10T16:40:35;4.60;99.90
40676;DHT22;26359;48.750;9.314;2023-02-10T16:43:02;4.50;99.90
40676;DHT22;26359;48.750;9.314;2023-02-10T16:45:30;4.40;99.90
40676;DHT22;26359;48.750;9.314;2023-02-10T16:47:57;4.30;99.90
40676;DHT22;26359;48.750;9.314;2023-02-10T16:50:36;4.30;99.90
40676;DHT22;26359;48.750;9.314;2023-02-10T16:53:05;4.20;99.90
40676;DHT22;26359;48.750;9.314;2023-02-10T16:55:36;4.10;99.90
40676;DHT22;26359;48.750;9.314;2023-02-10T16:58:02;4.10;99.90
40676;DHT22;26359;48.750;9.314;2023-02-10T17:00:28;4.00;99.90
40676;DHT22;26359;48.750;9.314;2023-02-10T17:02:55;3.90;99.90
40676;DHT22;26359;48.750;9.314;2023-02-10T17:05:21;3.80;99.90
40676;DHT22;26359;48.750;9.314;2023-02-10T17:07:47;3.80;99.90
40676;DHT22;26359;48.750;9.314;2023-02-10T17:10:21;3.80;99.90
40676;DHT22;26359;48.750;9.314;2023-02-10T17:12:46;3.80;99.90
40676;DHT22;26359;48.750;9.314;2023-02-10T17:15:12;3.80;99.90
40676;DHT22;26359;48.750;9.314;2023-02-10T17:17:38;3.70;99.90
40676;DHT22;26359;48.750;9.314;2023-02-10T17:20:05;3.70;99.90
40676;DHT22;26359;48.750;9.314;2023-02-10T17:22:31;3.60;99.90
40676;DHT22;26359;48.750;9.314;2023-02-10T17:24:57;3.60;99.90
40676;DHT22;26359;48.750;9.314;2023-02-10T17:27:22;3.50;99.90
40676;DHT22;26359;48.750;9.314;2023-02-10T17:29:49;3.40;99.90
40676;DHT22;26359;48.750;9.314;2023-02-10T17:32:14;3.30;99.90
40676;DHT22;26359;48.750;9.314;2023-02-10T17:34:40;3.20;99.90
40676;DHT22;26359;48.750;9.314;2023-02-10T17:37:05;3.30;99.90